createdAt,value
2022-10-02T00:02:11.034Z,2.75
2022-10-02T00:04:41.957Z,4.93
2022-10-02T00:07:11.955Z,3.65
2022-10-02T00:09:44.663Z,3.67
2022-10-02T00:12:15.491Z,3.25
2022-10-02T00:14:45.843Z,3.22
2022-10-02T00:17:18.712Z,3.75
2022-10-02T00:19:47.333Z,3.22
2022-10-02T00:22:24.440Z,4.00
2022-10-02T00:25:03.149Z,3.72
2022-10-02T00:27:36.952Z,3.67
2022-10-02T00:30:06.477Z,3.15
2022-10-02T00:33:01.235Z,2.95
2022-10-02T00:35:48.183Z,3.67
2022-10-02T00:38:25.064Z,3.60
2022-10-02T00:41:11.789Z,3.30
2022-10-02T00:43:39.673Z,2.88
2022-10-02T00:46:19.237Z,4.70
2022-10-02T00:48:59.277Z,3.80
2022-10-02T00:51:42.837Z,3.65
2022-10-02T00:54:18.333Z,3.17
2022-10-02T00:56:52.071Z,3.05
2022-10-02T00:59:31.448Z,3.28
2022-10-02T01:02:02.805Z,3.40
2022-10-02T01:04:32.471Z,3.63
2022-10-02T01:07:00.587Z,3.72
2022-10-02T01:09:29.277Z,5.22
2022-10-02T01:11:58.432Z,3.50
2022-10-02T01:14:34.794Z,3.38
2022-10-02T01:17:03.451Z,3.42
2022-10-02T01:19:38.439Z,3.25
2022-10-02T01:22:29.948Z,4.72
2022-10-02T01:25:04.170Z,3.30
2022-10-02T01:27:39.542Z,4.38
2022-10-02T01:30:10.256Z,3.53
2022-10-02T01:32:59.047Z,3.15
2022-10-02T01:35:32.470Z,3.80
2022-10-02T01:40:33.916Z,5.25
2022-10-02T01:43:04.989Z,5.70
2022-10-02T01:45:37.187Z,3.50
2022-10-02T01:48:19.605Z,4.10
2022-10-02T01:50:50.767Z,4.68
2022-10-02T01:53:29.859Z,4.55
2022-10-02T01:56:20.029Z,4.13
2022-10-02T01:58:56.195Z,4.00
2022-10-02T02:01:27.849Z,4.40
2022-10-02T02:04:07.872Z,3.47
2022-10-02T02:06:54.651Z,3.65
2022-10-02T02:09:26.956Z,5.03
2022-10-02T02:12:15.224Z,4.30
2022-10-02T02:14:49.458Z,4.05
2022-10-02T02:17:22.152Z,5.30
2022-10-02T02:19:53.449Z,4.50
2022-10-02T02:22:25.400Z,3.75
2022-10-02T02:24:56.836Z,5.95
2022-10-02T02:27:28.484Z,4.13
2022-10-02T02:29:59.516Z,4.63
2022-10-02T02:32:30.115Z,4.07
2022-10-02T02:35:03.144Z,3.92
2022-10-02T02:37:38.072Z,3.88
2022-10-02T02:40:09.771Z,4.28
2022-10-02T02:42:45.568Z,8.13
2022-10-02T02:45:17.484Z,4.88
2022-10-02T02:47:48.714Z,4.05
2022-10-02T02:50:25.690Z,5.65
2022-10-02T02:52:59.520Z,5.10
2022-10-02T02:55:30.642Z,4.13
2022-10-02T02:58:14.678Z,4.70
2022-10-02T03:00:44.145Z,5.32
2022-10-02T03:03:19.396Z,4.75
2022-10-02T03:05:53.160Z,5.93
2022-10-02T03:08:31.513Z,5.05
2022-10-02T03:11:11.943Z,4.88
2022-10-02T03:13:40.324Z,6.63
2022-10-02T03:16:19.786Z,5.60
2022-10-02T03:18:53.804Z,3.97
2022-10-02T03:23:52.689Z,5.07
2022-10-02T03:26:41.146Z,5.20
2022-10-02T03:29:14.038Z,4.05
2022-10-02T03:31:43.513Z,4.63
2022-10-02T03:34:12.239Z,5.78
2022-10-02T03:36:41.513Z,6.15
2022-10-02T03:39:24.802Z,5.90
2022-10-02T03:41:55.468Z,4.38
2022-10-02T03:44:24.357Z,5.13
2022-10-02T03:46:54.585Z,6.03
2022-10-02T03:49:23.835Z,4.40
2022-10-02T03:51:54.684Z,4.80
2022-10-02T03:54:24.148Z,4.13
2022-10-02T03:56:53.226Z,5.03
2022-10-02T03:59:43.908Z,4.25
2022-10-02T04:02:17.695Z,4.63
2022-10-02T04:04:49.120Z,4.10
2022-10-02T04:07:24.404Z,3.05
2022-10-02T04:09:59.715Z,4.90
2022-10-02T04:12:32.051Z,4.25
2022-10-02T04:15:07.849Z,3.25
2022-10-02T04:17:44.240Z,3.38
2022-10-02T04:20:24.436Z,3.70
2022-10-02T04:22:55.925Z,3.90
2022-10-02T04:25:29.580Z,4.38
2022-10-02T04:28:04.284Z,4.60
2022-10-02T04:30:33.007Z,4.28
2022-10-02T04:33:21.154Z,3.20
2022-10-02T04:35:55.613Z,3.33
2022-10-02T04:38:32.804Z,3.33
2022-10-02T04:41:19.812Z,3.42
2022-10-02T04:44:06.545Z,3.80
2022-10-02T04:46:41.113Z,4.43
2022-10-02T04:49:09.069Z,3.05
2022-10-02T04:51:45.652Z,2.78
2022-10-02T04:54:25.649Z,3.03
2022-10-02T04:56:56.673Z,2.33
2022-10-02T04:59:35.604Z,3.70
2022-10-02T05:02:22.169Z,2.22
2022-10-02T05:04:50.631Z,2.42
2022-10-02T05:07:45.389Z,2.38
2022-10-02T05:12:43.958Z,2.50
2022-10-02T05:15:20.161Z,2.83
2022-10-02T05:18:07.642Z,3.25
2022-10-02T05:20:38.568Z,3.83
2022-10-02T05:23:24.924Z,2.67
2022-10-02T05:26:05.084Z,2.78
2022-10-02T05:28:48.519Z,2.75
2022-10-02T05:31:34.984Z,3.00
2022-10-02T05:34:18.086Z,2.80
2022-10-02T05:37:06.432Z,2.97
2022-10-02T05:39:35.137Z,2.85
2022-10-02T05:42:09.175Z,3.53
2022-10-02T05:44:39.940Z,3.10
2022-10-02T05:47:10.707Z,3.53
2022-10-02T05:49:48.066Z,2.80
2022-10-02T05:52:19.651Z,3.60
2022-10-02T05:54:59.007Z,4.43
2022-10-02T05:57:36.569Z,4.28
2022-10-02T06:00:24.046Z,3.00
2022-10-02T06:03:23.243Z,3.92
2022-10-02T06:05:55.154Z,4.32
2022-10-02T06:08:26.614Z,4.75
2022-10-02T06:10:57.590Z,4.43
2022-10-02T06:13:28.463Z,4.35
2022-10-02T06:16:00.595Z,3.97
2022-10-02T06:18:31.440Z,4.75
2022-10-02T06:21:03.831Z,3.35
2022-10-02T06:23:36.930Z,5.25
2022-10-02T06:26:20.812Z,4.03
2022-10-02T06:28:51.607Z,3.75
2022-10-02T06:31:27.017Z,4.13
2022-10-02T06:33:55.533Z,3.90
2022-10-02T06:36:31.072Z,5.82
2022-10-02T06:39:05.680Z,4.70
2022-10-02T06:41:59.432Z,5.13
2022-10-02T06:44:33.149Z,6.45
2022-10-02T06:47:06.473Z,5.20
2022-10-02T06:49:53.231Z,4.15
2022-10-02T06:52:53.613Z,5.97
2022-10-02T06:55:41.069Z,5.35
2022-10-02T06:58:35.240Z,5.68
2022-10-02T07:01:03.150Z,6.85
2022-10-02T07:03:37.277Z,7.07
2022-10-02T07:08:41.483Z,5.78
2022-10-02T07:11:24.219Z,6.45
2022-10-02T07:14:15.325Z,5.75
2022-10-02T07:16:43.324Z,6.07
2022-10-02T07:19:22.893Z,6.50
2022-10-02T07:22:32.428Z,6.63
2022-10-02T07:25:16.010Z,5.72
2022-10-02T07:28:02.597Z,5.85
2022-10-02T07:30:34.725Z,6.30
2022-10-02T07:33:19.509Z,6.63
2022-10-02T07:36:06.199Z,6.30
2022-10-02T07:38:46.778Z,6.70
2022-10-02T07:41:19.817Z,7.53
2022-10-02T07:43:55.879Z,8.97
2022-10-02T07:46:29.756Z,6.93
2022-10-02T07:49:00.524Z,6.90
2022-10-02T07:51:49.882Z,7.60
2022-10-02T07:54:27.812Z,8.45
2022-10-02T07:56:59.285Z,8.63
2022-10-02T07:59:28.011Z,7.47
2022-10-02T08:01:56.645Z,7.32
2022-10-02T08:04:34.670Z,7.68
2022-10-02T08:07:06.425Z,7.50
2022-10-02T08:09:38.766Z,7.32
2022-10-02T08:12:16.031Z,6.97
2022-10-02T08:14:45.824Z,6.50
2022-10-02T08:17:27.452Z,8.07
2022-10-02T08:19:59.630Z,7.20
2022-10-02T08:22:36.635Z,7.70
2022-10-02T08:25:21.044Z,8.35
2022-10-02T08:27:57.202Z,8.00
2022-10-02T08:30:25.401Z,7.75
2022-10-02T08:32:59.220Z,8.88
2022-10-02T08:35:41.038Z,8.18
2022-10-02T08:38:21.656Z,8.52
2022-10-02T08:40:57.797Z,8.35
2022-10-02T08:43:39.097Z,8.77
2022-10-02T08:46:07.130Z,10.10
2022-10-02T08:48:55.271Z,9.18
2022-10-02T08:51:41.587Z,9.57
2022-10-02T08:54:27.802Z,11.50
2022-10-02T08:57:13.343Z,13.02
2022-10-02T08:59:42.099Z,9.73
2022-10-02T09:02:12.681Z,7.50
2022-10-02T09:05:01.037Z,7.43
2022-10-02T09:07:48.152Z,8.32
2022-10-02T09:10:34.481Z,8.10
2022-10-02T09:13:24.364Z,8.20
2022-10-02T09:16:01.762Z,7.45
2022-10-02T09:18:32.858Z,8.73
2022-10-02T09:21:13.257Z,8.30
2022-10-02T09:23:59.792Z,7.90
2022-10-02T09:26:42.725Z,8.75
2022-10-02T09:29:10.646Z,7.70
2022-10-02T09:31:58.981Z,8.10
2022-10-02T09:34:29.934Z,7.20
2022-10-02T09:36:57.864Z,7.55
2022-10-02T09:39:44.562Z,7.05
2022-10-02T09:42:15.580Z,7.28
2022-10-02T09:45:01.495Z,6.65
2022-10-02T09:47:36.931Z,5.32
2022-10-02T09:50:04.960Z,6.15
2022-10-02T09:52:50.204Z,6.43
2022-10-02T09:55:35.289Z,6.88
2022-10-02T09:58:18.517Z,5.60
2022-10-02T10:01:01.622Z,5.18
2022-10-02T10:03:43.870Z,6.00
2022-10-02T10:06:30.591Z,4.97
2022-10-02T10:09:18.350Z,5.13
2022-10-02T10:11:47.757Z,5.75
2022-10-02T10:14:34.657Z,5.55
2022-10-02T10:17:05.669Z,6.18
2022-10-02T10:19:36.375Z,6.18
2022-10-02T10:22:10.308Z,5.75
2022-10-02T10:25:02.372Z,6.85
2022-10-02T10:27:49.121Z,6.95
2022-10-02T10:30:29.722Z,7.70
2022-10-02T10:33:16.220Z,6.63
2022-10-02T10:35:57.025Z,6.72
2022-10-02T10:38:33.100Z,6.10
2022-10-02T10:41:16.410Z,6.28
2022-10-02T10:43:44.549Z,7.47
2022-10-02T10:46:18.489Z,6.97
2022-10-02T10:48:49.555Z,7.05
2022-10-02T10:51:41.329Z,7.55
2022-10-02T10:54:15.247Z,6.70
2022-10-02T10:57:04.334Z,6.57
2022-10-02T10:59:48.338Z,6.20
2022-10-02T11:02:19.084Z,5.50
2022-10-02T11:05:06.634Z,6.00
2022-10-02T11:07:50.415Z,6.53
2022-10-02T11:10:18.236Z,5.00
2022-10-02T11:13:03.046Z,5.30
2022-10-02T11:15:39.806Z,6.75
2022-10-02T11:18:17.106Z,6.60
2022-10-02T11:20:53.302Z,5.18
2022-10-02T11:23:27.280Z,6.28
2022-10-02T11:26:09.442Z,5.50
2022-10-02T11:28:43.713Z,4.50
2022-10-02T11:31:30.106Z,3.65
2022-10-02T11:34:04.088Z,3.92
2022-10-02T11:36:44.076Z,3.60
2022-10-02T11:39:17.664Z,4.22
2022-10-02T11:41:49.383Z,4.28
2022-10-02T11:44:24.723Z,4.55
2022-10-02T11:46:55.733Z,6.30
2022-10-02T11:49:27.273Z,5.30
2022-10-02T11:52:04.242Z,3.78
2022-10-02T11:54:38.117Z,3.00
2022-10-02T11:57:22.155Z,3.47
2022-10-02T11:59:53.155Z,3.13
2022-10-02T12:02:25.586Z,2.72
2022-10-02T12:04:57.256Z,2.65
2022-10-02T12:07:48.530Z,2.40
2022-10-02T12:10:25.921Z,2.72
2022-10-02T12:13:12.041Z,3.53
2022-10-02T12:16:06.265Z,3.65
2022-10-02T12:18:44.965Z,3.30
2022-10-02T12:21:30.729Z,2.90
2022-10-02T12:24:16.066Z,2.72
2022-10-02T12:27:00.478Z,2.55
2022-10-02T12:32:08.165Z,2.60
2022-10-02T12:34:38.538Z,2.97
2022-10-02T12:37:15.743Z,3.13
2022-10-02T12:39:46.492Z,1.90
2022-10-02T12:42:29.264Z,5.72
2022-10-02T12:45:00.260Z,8.75
2022-10-02T12:47:30.909Z,2.58
2022-10-02T12:50:05.715Z,3.05
2022-10-02T12:52:42.092Z,2.40
2022-10-02T12:55:39.181Z,2.03
2022-10-02T12:58:12.131Z,2.42
2022-10-02T13:00:51.941Z,3.92
2022-10-02T13:03:20.116Z,2.78
2022-10-02T13:05:48.129Z,2.30
2022-10-02T13:08:22.277Z,2.83
2022-10-02T13:10:58.133Z,2.03
2022-10-02T13:13:31.729Z,2.70
2022-10-02T13:16:12.710Z,3.05
2022-10-02T13:18:44.794Z,2.63
2022-10-02T13:21:18.830Z,2.28
2022-10-02T13:23:51.437Z,2.33
2022-10-02T13:26:25.016Z,4.15
2022-10-02T13:29:02.209Z,1.42
2022-10-02T13:31:30.393Z,4.82
2022-10-02T13:34:07.553Z,3.70
2022-10-02T13:36:55.698Z,2.70
2022-10-02T13:39:42.098Z,2.25
2022-10-02T13:42:19.146Z,2.67
2022-10-02T13:44:49.769Z,1.80
2022-10-02T13:47:27.072Z,2.63
2022-10-02T13:49:58.084Z,2.63
2022-10-02T13:52:45.096Z,2.40
2022-10-02T13:55:26.841Z,2.80
2022-10-02T13:58:18.833Z,2.50
2022-10-02T14:00:53.072Z,2.63
2022-10-02T14:03:54.466Z,2.88
2022-10-02T14:06:30.212Z,3.63
2022-10-02T14:08:58.327Z,2.78
2022-10-02T14:11:45.168Z,2.33
2022-10-02T14:14:35.840Z,3.65
2022-10-02T14:17:16.421Z,3.00
2022-10-02T14:19:52.797Z,2.85
2022-10-02T14:22:39.405Z,2.72
2022-10-02T14:25:26.491Z,3.35
2022-10-02T14:28:06.861Z,2.85
2022-10-02T14:30:37.562Z,3.10
2022-10-02T14:33:05.437Z,3.38
2022-10-02T14:35:52.209Z,2.83
2022-10-02T14:38:27.476Z,3.70
2022-10-02T14:40:59.702Z,3.38
2022-10-02T14:43:45.532Z,2.15
2022-10-02T14:46:22.161Z,2.30
2022-10-02T14:49:09.306Z,2.30
2022-10-02T14:51:43.975Z,2.20
2022-10-02T14:54:12.093Z,2.30
2022-10-02T14:56:58.291Z,2.22
2022-10-02T14:59:41.694Z,3.97
2022-10-02T15:02:09.772Z,2.60
2022-10-02T15:04:43.543Z,2.58
2022-10-02T15:07:14.611Z,1.88
2022-10-02T15:09:45.876Z,2.85
2022-10-02T15:12:17.330Z,2.70
2022-10-02T15:15:00.381Z,2.53
2022-10-02T15:18:01.121Z,3.35
2022-10-02T15:20:40.425Z,2.90
2022-10-02T15:23:13.259Z,2.95
2022-10-02T15:25:48.101Z,2.95
2022-10-02T15:28:37.083Z,3.17
2022-10-02T15:31:05.762Z,3.33
2022-10-02T15:33:39.792Z,3.40
2022-10-02T15:36:07.919Z,6.18
2022-10-02T15:38:36.013Z,5.25
2022-10-02T15:41:13.367Z,7.45
2022-10-02T15:44:00.936Z,3.35
2022-10-02T15:46:49.672Z,3.25
2022-10-02T15:49:23.721Z,3.53
2022-10-02T15:52:00.224Z,2.90
2022-10-02T15:54:39.396Z,3.05
2022-10-02T15:57:08.012Z,2.80
2022-10-02T16:00:08.756Z,3.65
2022-10-02T16:03:03.199Z,2.28
2022-10-02T16:05:37.691Z,2.15
2022-10-02T16:08:24.408Z,2.83
2022-10-02T16:10:55.195Z,2.38
2022-10-02T16:13:47.339Z,2.47
2022-10-02T16:16:23.553Z,2.15
2022-10-02T16:18:54.258Z,2.53
2022-10-02T16:21:40.345Z,2.15
2022-10-02T16:24:10.955Z,3.15
2022-10-02T16:26:58.976Z,2.10
2022-10-02T16:29:35.123Z,2.00
2022-10-02T16:32:21.847Z,2.13
2022-10-02T16:35:06.672Z,1.50
2022-10-02T16:37:42.791Z,1.88
2022-10-02T16:40:16.990Z,1.50
2022-10-02T16:45:21.872Z,2.55
2022-10-02T16:47:56.431Z,2.00
2022-10-02T16:50:30.123Z,1.48
2022-10-02T16:53:11.496Z,2.22
2022-10-02T16:55:42.651Z,2.20
2022-10-02T16:58:17.761Z,2.00
2022-10-02T17:00:51.746Z,2.03
2022-10-02T17:03:28.271Z,2.10
2022-10-02T17:06:06.408Z,1.50
2022-10-02T17:08:53.785Z,1.58
2022-10-02T17:11:23.889Z,1.40
2022-10-02T17:14:01.715Z,1.05
2022-10-02T17:16:32.231Z,1.40
2022-10-02T17:19:16.534Z,1.42
2022-10-02T17:21:44.530Z,2.13
2022-10-02T17:24:23.564Z,1.65
2022-10-02T17:26:51.581Z,1.88
2022-10-02T17:29:25.297Z,2.08
2022-10-02T17:31:58.622Z,1.50
2022-10-02T17:34:28.086Z,1.65
2022-10-02T17:36:59.014Z,1.77
2022-10-02T17:39:34.003Z,2.53
2022-10-02T17:42:22.313Z,1.90
2022-10-02T17:44:50.289Z,1.90
2022-10-02T17:47:19.125Z,1.90
2022-10-02T17:49:53.313Z,1.85
2022-10-02T17:55:44.027Z,1.67
2022-10-02T17:58:31.159Z,2.28
2022-10-02T18:01:05.778Z,1.45
2022-10-02T18:03:36.897Z,1.65
2022-10-02T18:06:14.509Z,2.65
2022-10-02T18:08:55.405Z,1.55
2022-10-02T18:11:43.135Z,1.88
2022-10-02T18:14:17.735Z,1.63
2022-10-02T18:16:55.296Z,2.75
2022-10-02T18:19:42.042Z,1.85
2022-10-02T18:22:13.098Z,2.83
2022-10-02T18:24:51.811Z,1.85
2022-10-02T18:27:26.153Z,2.00
2022-10-02T18:30:27.897Z,1.50
2022-10-02T18:33:14.669Z,2.05
2022-10-02T18:36:00.977Z,2.60
2022-10-02T18:38:38.648Z,2.53
2022-10-02T18:41:20.981Z,3.65
2022-10-02T18:43:49.065Z,3.42
2022-10-02T18:46:42.472Z,2.75
2022-10-02T18:49:22.639Z,2.25
2022-10-02T18:52:00.047Z,2.25
2022-10-02T18:54:37.593Z,2.38
2022-10-02T18:57:08.272Z,2.13
2022-10-02T18:59:56.058Z,2.42
2022-10-02T19:02:43.407Z,2.75
2022-10-02T19:05:23.809Z,8.85
2022-10-02T19:08:04.132Z,27.35
2022-10-02T19:10:32.038Z,4.13
2022-10-02T19:13:21.516Z,4.60
2022-10-02T19:15:52.305Z,5.47
2022-10-02T19:18:25.637Z,4.40
2022-10-02T19:20:57.238Z,3.47
2022-10-02T19:23:29.571Z,3.33
2022-10-02T19:26:00.505Z,2.72
2022-10-02T19:28:30.437Z,3.20
2022-10-02T19:31:03.464Z,2.60
2022-10-02T19:33:46.815Z,3.45
2022-10-02T19:36:23.232Z,2.67
2022-10-02T19:38:55.039Z,3.05
2022-10-02T19:41:24.320Z,3.03
2022-10-02T19:44:07.433Z,2.95
2022-10-02T19:46:41.614Z,2.88
2022-10-02T19:49:19.044Z,3.65
2022-10-02T19:54:36.789Z,3.05
2022-10-02T19:57:09.388Z,3.78
2022-10-02T19:59:41.931Z,4.53
2022-10-02T20:02:28.962Z,3.15
2022-10-02T20:04:59.672Z,3.33
2022-10-02T20:07:30.989Z,4.25
2022-10-02T20:10:02.925Z,3.38
2022-10-02T20:12:38.034Z,3.43
2022-10-02T20:15:10.018Z,2.88
2022-10-02T20:17:39.183Z,3.03
2022-10-02T20:20:12.992Z,2.45
2022-10-02T20:22:58.745Z,2.67
2022-10-02T20:25:31.977Z,2.45
2022-10-02T20:28:02.408Z,3.05
2022-10-02T20:30:35.875Z,4.03
2022-10-02T20:33:06.033Z,3.78
2022-10-02T20:35:37.941Z,3.35
2022-10-02T20:38:11.489Z,3.60
2022-10-02T20:40:42.933Z,4.20
2022-10-02T20:43:37.236Z,3.55
2022-10-02T20:46:08.490Z,3.40
2022-10-02T20:49:06.354Z,4.53
2022-10-02T20:51:34.017Z,5.70
2022-10-02T20:54:14.876Z,6.00
2022-10-02T20:56:49.768Z,5.22
2022-10-02T20:59:20.808Z,5.28
2022-10-02T21:01:51.493Z,4.05
2022-10-02T21:04:33.975Z,4.43
2022-10-02T21:07:28.154Z,3.03
2022-10-02T21:10:15.396Z,3.47
2022-10-02T21:13:01.957Z,3.67
2022-10-02T21:15:53.313Z,4.13
2022-10-02T21:18:30.254Z,3.88
2022-10-02T21:21:21.495Z,4.15
2022-10-02T21:24:01.530Z,4.65
2022-10-02T21:26:38.464Z,4.65
2022-10-02T21:29:06.846Z,4.80
2022-10-02T21:31:50.560Z,4.15
2022-10-02T21:34:18.451Z,3.25
2022-10-02T21:36:46.561Z,3.78
2022-10-02T21:39:20.599Z,3.40
2022-10-02T21:42:08.577Z,3.25
2022-10-02T21:45:06.820Z,3.30
2022-10-02T21:47:45.203Z,3.55
2022-10-02T21:50:22.382Z,2.70
2022-10-02T21:52:56.582Z,3.58
2022-10-02T21:55:42.976Z,2.88
2022-10-02T21:58:29.350Z,4.10
2022-10-02T22:01:06.569Z,2.90
2022-10-02T22:03:53.302Z,2.97
2022-10-02T22:06:25.777Z,2.83
2022-10-02T22:08:54.901Z,3.00
2022-10-02T22:11:35.065Z,2.80
2022-10-02T22:14:08.907Z,2.97
2022-10-02T22:16:40.018Z,2.92
2022-10-02T22:19:18.932Z,2.95
2022-10-02T22:21:55.277Z,3.38
2022-10-02T22:24:32.369Z,3.13
2022-10-02T22:27:19.143Z,2.95
2022-10-02T22:29:56.956Z,2.90
2022-10-02T22:32:49.059Z,2.53
2022-10-02T22:35:27.327Z,2.85
2022-10-02T22:38:07.617Z,3.08
2022-10-02T22:40:45.525Z,4.35
2022-10-02T22:43:22.505Z,2.90
2022-10-02T22:45:54.863Z,2.60
2022-10-02T22:48:30.899Z,3.72
2022-10-02T22:51:03.265Z,3.83
2022-10-02T22:53:35.390Z,3.40
2022-10-02T22:56:03.636Z,2.95
2022-10-02T22:58:48.296Z,3.25
2022-10-02T23:01:20.602Z,2.97
2022-10-02T23:03:59.503Z,4.32
2022-10-02T23:06:31.567Z,3.20
2022-10-02T23:09:06.968Z,4.25
2022-10-02T23:11:47.801Z,3.75
2022-10-02T23:14:15.728Z,3.58
2022-10-02T23:16:49.030Z,2.90
2022-10-02T23:19:17.792Z,3.22
2022-10-02T23:21:52.105Z,2.95
2022-10-02T23:24:31.553Z,3.47
2022-10-02T23:27:05.749Z,3.00
2022-10-02T23:29:52.586Z,4.45
2022-10-02T23:32:21.663Z,4.75
2022-10-02T23:34:55.729Z,3.20
2022-10-02T23:37:47.641Z,2.80
2022-10-02T23:40:52.228Z,3.15
2022-10-02T23:45:52.822Z,3.20
2022-10-02T23:48:21.264Z,3.03
2022-10-02T23:51:00.146Z,3.63
2022-10-02T23:53:36.665Z,3.60
2022-10-02T23:56:13.687Z,2.85
2022-10-02T23:58:56.976Z,3.55
